sensor_id;sensor_type;location;lat;lon;timestamp;temperature;humidity
8332;DHT22;4203;48.144;14.118;2023-03-04T00:01:59;0.60;99.90
8332;DHT22;4203;48.144;14.118;2023-03-04T00:04:28;0.60;99.90
8332;DHT22;4203;48.144;14.118;2023-03-04T00:06:55;0.60;99.90
8332;DHT22;4203;48.144;14.118;2023-03-04T00:09:22;0.60;99.90
8332;DHT22;4203;48.144;14.118;2023-03-04T00:11:49;0.60;99.90
8332;DHT22;4203;48.144;14.118;2023-03-04T00:14:16;0.60;99.90
8332;DHT22;4203;48.144;14.118;2023-03-04T00:16:44;0.50;99.90
8332;DHT22;4203;48.144;14.118;2023-03-04T00:19:11;0.50;99.90
8332;DHT22;4203;48.144;14.118;2023-03-04T00:21:39;0.50;99.90
8332;DHT22;4203;48.144;14.118;2023-03-04T00:24:07;0.40;99.90
8332;DHT22;4203;48.144;14.118;2023-03-04T00:26:34;0.40;99.90
8332;DHT22;4203;48.144;14.118;2023-03-04T00:29:01;0.40;99.90
8332;DHT22;4203;48.144;14.118;2023-03-04T00:31:28;0.30;99.90
8332;DHT22;4203;48.144;14.118;2023-03-04T00:33:55;0.30;99.90
8332;DHT22;4203;48.144;14.118;2023-03-04T00:36:22;0.30;99.90
8332;DHT22;4203;48.144;14.118;2023-03-04T00:38:52;0.30;99.90
8332;DHT22;4203;48.144;14.118;2023-03-04T00:41:19;0.30;99.90
8332;DHT22;4203;48.144;14.118;2023-03-04T00:43:46;0.30;99.90
8332;DHT22;4203;48.144;14.118;2023-03-04T00:46:13;0.30;99.90
8332;DHT22;4203;48.144;14.118;2023-03-04T00:48:40;0.30;99.90
8332;DHT22;4203;48.144;14.118;2023-03-04T00:51:07;0.30;99.90
8332;DHT22;4203;48.144;14.118;2023-03-04T00:53:34;0.20;99.90
8332;DHT22;4203;48.144;14.118;2023-03-04T00:56:04;0.20;99.90
8332;DHT22;4203;48.144;14.118;2023-03-04T00:58:31;0.20;99.90
8332;DHT22;4203;48.144;14.118;2023-03-04T01:00:58;0.20;99.90
8332;DHT22;4203;48.144;14.118;2023-03-04T01:03:25;0.10;99.90
8332;DHT22;4203;48.144;14.118;2023-03-04T01:05:56;0.10;99.90
8332;DHT22;4203;48.144;14.118;2023-03-04T01:08:23;0.10;99.90
8332;DHT22;4203;48.144;14.118;2023-03-04T01:10:50;0.10;99.90
8332;DHT22;4203;48.144;14.118;2023-03-04T01:13:19;0.10;99.90
8332;DHT22;4203;48.144;14.118;2023-03-04T01:15:46;0.10;99.90
8332;DHT22;4203;48.144;14.118;2023-03-04T01:18:13;0.10;99.90
8332;DHT22;4203;48.144;14.118;2023-03-04T01:20:40;0.00;99.90
8332;DHT22;4203;48.144;14.118;2023-03-04T01:23:07;0.00;99.90
8332;DHT22;4203;48.144;14.118;2023-03-04T01:25:35;0.00;99.90
8332;DHT22;4203;48.144;14.118;2023-03-04T01:28:02;0.00;99.90
8332;DHT22;4203;48.144;14.118;2023-03-04T01:30:31;0.30;99.90
8332;DHT22;4203;48.144;14.118;2023-03-04T01:32:58;0.70;99.90
8332;DHT22;4203;48.144;14.118;2023-03-04T01:35:25;1.10;99.90
8332;DHT22;4203;48.144;14.118;2023-03-04T01:37:52;1.30;99.90
8332;DHT22;4203;48.144;14.118;2023-03-04T01:40:20;1.30;99.90
8332;DHT22;4203;48.144;14.118;2023-03-04T01:42:47;1.20;99.90
8332;DHT22;4203;48.144;14.118;2023-03-04T01:45:16;1.20;99.90
8332;DHT22;4203;48.144;14.118;2023-03-04T01:47:46;1.20;99.90
8332;DHT22;4203;48.144;14.118;2023-03-04T01:50:20;1.10;99.90
8332;DHT22;4203;48.144;14.118;2023-03-04T01:52:47;1.10;99.90
8332;DHT22;4203;48.144;14.118;2023-03-04T01:55:16;1.00;99.90
8332;DHT22;4203;48.144;14.118;2023-03-04T01:57:45;1.10;99.90
8332;DHT22;4203;48.144;14.118;2023-03-04T02:00:24;1.30;99.90
8332;DHT22;4203;48.144;14.118;2023-03-04T02:02:56;1.30;99.90
8332;DHT22;4203;48.144;14.118;2023-03-04T02:05:24;1.40;99.90
8332;DHT22;4203;48.144;14.118;2023-03-04T02:07:54;1.40;99.90
8332;DHT22;4203;48.144;14.118;2023-03-04T02:10:21;1.40;99.90
8332;DHT22;4203;48.144;14.118;2023-03-04T02:12:49;1.40;99.90
8332;DHT22;4203;48.144;14.118;2023-03-04T02:15:17;1.30;99.90
8332;DHT22;4203;48.144;14.118;2023-03-04T02:17:44;1.20;99.90
8332;DHT22;4203;48.144;14.118;2023-03-04T02:20:38;1.10;99.90
8332;DHT22;4203;48.144;14.118;2023-03-04T02:23:13;1.10;99.90
8332;DHT22;4203;48.144;14.118;2023-03-04T02:25:44;1.10;99.90
8332;DHT22;4203;48.144;14.118;2023-03-04T02:28:15;1.10;99.90
8332;DHT22;4203;48.144;14.118;2023-03-04T02:30:42;1.00;99.90
8332;DHT22;4203;48.144;14.118;2023-03-04T02:33:15;1.00;99.90
8332;DHT22;4203;48.144;14.118;2023-03-04T02:35:42;1.00;99.90
8332;DHT22;4203;48.144;14.118;2023-03-04T02:38:10;1.00;99.90
8332;DHT22;4203;48.144;14.118;2023-03-04T02:40:40;1.10;99.90
8332;DHT22;4203;48.144;14.118;2023-03-04T02:43:08;1.10;99.90
8332;DHT22;4203;48.144;14.118;2023-03-04T02:45:41;1.10;99.90
8332;DHT22;4203;48.144;14.118;2023-03-04T02:48:09;1.10;99.90
8332;DHT22;4203;48.144;14.118;2023-03-04T02:50:40;1.10;99.90
8332;DHT22;4203;48.144;14.118;2023-03-04T02:53:08;1.20;99.90
8332;DHT22;4203;48.144;14.118;2023-03-04T02:55:35;1.20;99.90
8332;DHT22;4203;48.144;14.118;2023-03-04T02:58:02;1.40;99.90
8332;DHT22;4203;48.144;14.118;2023-03-04T03:00:30;1.40;99.90
8332;DHT22;4203;48.144;14.118;2023-03-04T03:02:58;1.40;99.90
8332;DHT22;4203;48.144;14.118;2023-03-04T03:05:28;1.30;99.90
8332;DHT22;4203;48.144;14.118;2023-03-04T03:07:56;1.30;99.90
8332;DHT22;4203;48.144;14.118;2023-03-04T03:10:23;1.30;99.90
8332;DHT22;4203;48.144;14.118;2023-03-04T03:12:51;1.30;99.90
8332;DHT22;4203;48.144;14.118;2023-03-04T03:15:18;1.40;99.90
8332;DHT22;4203;48.144;14.118;2023-03-04T03:17:47;1.40;99.90
8332;DHT22;4203;48.144;14.118;2023-03-04T03:20:16;1.30;99.90
8332;DHT22;4203;48.144;14.118;2023-03-04T03:22:44;1.20;99.90
8332;DHT22;4203;48.144;14.118;2023-03-04T03:25:12;1.10;99.90
8332;DHT22;4203;48.144;14.118;2023-03-04T03:27:40;1.00;99.90
8332;DHT22;4203;48.144;14.118;2023-03-04T03:30:11;0.90;99.90
8332;DHT22;4203;48.144;14.118;2023-03-04T03:32:39;0.80;99.90
8332;DHT22;4203;48.144;14.118;2023-03-04T03:35:07;0.80;99.90
8332;DHT22;4203;48.144;14.118;2023-03-04T03:37:35;0.90;99.90
8332;DHT22;4203;48.144;14.118;2023-03-04T03:40:03;1.00;99.90
8332;DHT22;4203;48.144;14.118;2023-03-04T03:42:31;1.20;99.90
8332;DHT22;4203;48.144;14.118;2023-03-04T03:44:58;1.30;99.90
8332;DHT22;4203;48.144;14.118;2023-03-04T03:47:26;1.50;99.90
8332;DHT22;4203;48.144;14.118;2023-03-04T03:49:53;1.50;99.90
8332;DHT22;4203;48.144;14.118;2023-03-04T03:52:20;1.60;99.90
8332;DHT22;4203;48.144;14.118;2023-03-04T03:54:49;1.60;99.90
8332;DHT22;4203;48.144;14.118;2023-03-04T03:57:16;1.60;99.90
8332;DHT22;4203;48.144;14.118;2023-03-04T03:59:43;1.60;99.90
8332;DHT22;4203;48.144;14.118;2023-03-04T04:02:10;1.60;99.90
8332;DHT22;4203;48.144;14.118;2023-03-04T04:04:37;1.60;99.90
8332;DHT22;4203;48.144;14.118;2023-03-04T04:07:05;1.60;99.90
8332;DHT22;4203;48.144;14.118;2023-03-04T04:09:32;1.70;99.90
8332;DHT22;4203;48.144;14.118;2023-03-04T04:12:00;1.70;99.90
8332;DHT22;4203;48.144;14.118;2023-03-04T04:14:27;1.70;99.90
8332;DHT22;4203;48.144;14.118;2023-03-04T04:16:54;1.70;99.90
8332;DHT22;4203;48.144;14.118;2023-03-04T04:19:22;1.70;99.90
8332;DHT22;4203;48.144;14.118;2023-03-04T04:21:49;1.70;99.90
8332;DHT22;4203;48.144;14.118;2023-03-04T04:24:16;1.70;99.90
8332;DHT22;4203;48.144;14.118;2023-03-04T04:26:43;1.70;99.90
8332;DHT22;4203;48.144;14.118;2023-03-04T04:29:14;1.60;99.90
8332;DHT22;4203;48.144;14.118;2023-03-04T04:31:41;1.60;99.90
8332;DHT22;4203;48.144;14.118;2023-03-04T04:34:08;1.70;99.90
8332;DHT22;4203;48.144;14.118;2023-03-04T04:36:35;1.70;99.90
8332;DHT22;4203;48.144;14.118;2023-03-04T04:39:03;1.80;99.90
8332;DHT22;4203;48.144;14.118;2023-03-04T04:41:37;1.70;99.90
8332;DHT22;4203;48.144;14.118;2023-03-04T04:44:05;1.70;99.90
8332;DHT22;4203;48.144;14.118;2023-03-04T04:46:34;1.60;99.90
8332;DHT22;4203;48.144;14.118;2023-03-04T04:49:01;1.50;99.90
8332;DHT22;4203;48.144;14.118;2023-03-04T04:51:29;1.40;99.90
8332;DHT22;4203;48.144;14.118;2023-03-04T04:53:57;1.30;99.90
8332;DHT22;4203;48.144;14.118;2023-03-04T04:56:24;1.30;99.90
8332;DHT22;4203;48.144;14.118;2023-03-04T04:58:53;1.20;99.90
8332;DHT22;4203;48.144;14.118;2023-03-04T05:01:22;1.10;99.90
8332;DHT22;4203;48.144;14.118;2023-03-04T05:03:51;1.10;99.90
8332;DHT22;4203;48.144;14.118;2023-03-04T05:06:21;1.00;99.90
8332;DHT22;4203;48.144;14.118;2023-03-04T05:08:48;1.00;99.90
8332;DHT22;4203;48.144;14.118;2023-03-04T05:11:16;0.90;99.90
8332;DHT22;4203;48.144;14.118;2023-03-04T05:13:44;0.90;99.90
8332;DHT22;4203;48.144;14.118;2023-03-04T05:16:11;0.80;99.90
8332;DHT22;4203;48.144;14.118;2023-03-04T05:18:39;0.80;99.90
8332;DHT22;4203;48.144;14.118;2023-03-04T05:21:08;0.80;99.90
8332;DHT22;4203;48.144;14.118;2023-03-04T05:23:37;0.70;99.90
8332;DHT22;4203;48.144;14.118;2023-03-04T05:26:05;0.60;99.90
8332;DHT22;4203;48.144;14.118;2023-03-04T05:28:34;0.50;99.90
8332;DHT22;4203;48.144;14.118;2023-03-04T05:31:01;0.40;99.90
8332;DHT22;4203;48.144;14.118;2023-03-04T05:33:29;0.30;99.90
8332;DHT22;4203;48.144;14.118;2023-03-04T05:35:57;0.30;99.90
8332;DHT22;4203;48.144;14.118;2023-03-04T05:38:25;0.20;99.90
8332;DHT22;4203;48.144;14.118;2023-03-04T05:40:56;0.20;99.90
8332;DHT22;4203;48.144;14.118;2023-03-04T05:43:24;0.30;99.90
8332;DHT22;4203;48.144;14.118;2023-03-04T05:45:52;0.30;99.90
8332;DHT22;4203;48.144;14.118;2023-03-04T05:48:21;0.20;99.90
8332;DHT22;4203;48.144;14.118;2023-03-04T05:50:52;0.20;99.90
8332;DHT22;4203;48.144;14.118;2023-03-04T05:53:19;0.20;99.90
8332;DHT22;4203;48.144;14.118;2023-03-04T05:55:48;0.20;99.90
8332;DHT22;4203;48.144;14.118;2023-03-04T05:58:16;0.10;99.90
8332;DHT22;4203;48.144;14.118;2023-03-04T06:00:43;0.10;99.90
8332;DHT22;4203;48.144;14.118;2023-03-04T06:03:14;0.10;99.90
8332;DHT22;4203;48.144;14.118;2023-03-04T06:05:42;0.10;99.90
8332;DHT22;4203;48.144;14.118;2023-03-04T06:08:09;0.10;99.90
8332;DHT22;4203;48.144;14.118;2023-03-04T06:10:38;0.10;99.90
8332;DHT22;4203;48.144;14.118;2023-03-04T06:13:08;0.20;99.90
8332;DHT22;4203;48.144;14.118;2023-03-04T06:15:35;0.30;99.90
8332;DHT22;4203;48.144;14.118;2023-03-04T06:18:02;0.30;99.90
8332;DHT22;4203;48.144;14.118;2023-03-04T06:20:29;0.40;99.90
8332;DHT22;4203;48.144;14.118;2023-03-04T06:22:56;0.40;99.90
8332;DHT22;4203;48.144;14.118;2023-03-04T06:25:24;0.40;99.90
8332;DHT22;4203;48.144;14.118;2023-03-04T06:27:51;0.50;99.90
8332;DHT22;4203;48.144;14.118;2023-03-04T06:30:20;0.60;99.90
8332;DHT22;4203;48.144;14.118;2023-03-04T06:32:47;0.80;99.90
8332;DHT22;4203;48.144;14.118;2023-03-04T06:35:15;0.90;99.90
8332;DHT22;4203;48.144;14.118;2023-03-04T06:37:42;0.90;99.90
8332;DHT22;4203;48.144;14.118;2023-03-04T06:40:11;1.00;99.90
8332;DHT22;4203;48.144;14.118;2023-03-04T06:42:39;1.00;99.90
8332;DHT22;4203;48.144;14.118;2023-03-04T06:45:07;1.00;99.90
8332;DHT22;4203;48.144;14.118;2023-03-04T06:47:36;1.10;99.90
8332;DHT22;4203;48.144;14.118;2023-03-04T06:50:04;1.10;99.90
8332;DHT22;4203;48.144;14.118;2023-03-04T06:52:31;1.10;99.90
8332;DHT22;4203;48.144;14.118;2023-03-04T06:54:59;1.20;99.90
8332;DHT22;4203;48.144;14.118;2023-03-04T06:57:26;1.20;99.90
8332;DHT22;4203;48.144;14.118;2023-03-04T06:59:53;1.30;99.90
8332;DHT22;4203;48.144;14.118;2023-03-04T07:02:20;1.40;99.90
8332;DHT22;4203;48.144;14.118;2023-03-04T07:04:49;1.60;99.90
8332;DHT22;4203;48.144;14.118;2023-03-04T07:07:16;1.70;99.90
8332;DHT22;4203;48.144;14.118;2023-03-04T07:09:43;1.70;99.90
8332;DHT22;4203;48.144;14.118;2023-03-04T07:12:10;1.80;99.90
8332;DHT22;4203;48.144;14.118;2023-03-04T07:14:38;1.90;99.90
8332;DHT22;4203;48.144;14.118;2023-03-04T07:17:05;2.00;99.90
8332;DHT22;4203;48.144;14.118;2023-03-04T07:19:33;2.10;99.90
8332;DHT22;4203;48.144;14.118;2023-03-04T07:22:01;2.20;99.90
8332;DHT22;4203;48.144;14.118;2023-03-04T07:24:28;2.20;99.90
8332;DHT22;4203;48.144;14.118;2023-03-04T07:26:56;2.30;99.90
8332;DHT22;4203;48.144;14.118;2023-03-04T07:29:23;2.40;99.90
8332;DHT22;4203;48.144;14.118;2023-03-04T07:31:50;2.60;99.90
8332;DHT22;4203;48.144;14.118;2023-03-04T07:34:17;2.70;99.90
8332;DHT22;4203;48.144;14.118;2023-03-04T07:36:45;2.80;99.90
8332;DHT22;4203;48.144;14.118;2023-03-04T07:39:13;3.00;99.90
8332;DHT22;4203;48.144;14.118;2023-03-04T07:41:40;3.10;99.90
8332;DHT22;4203;48.144;14.118;2023-03-04T07:44:09;3.20;99.90
8332;DHT22;4203;48.144;14.118;2023-03-04T07:46:37;3.30;99.90
8332;DHT22;4203;48.144;14.118;2023-03-04T07:49:04;3.40;99.90
8332;DHT22;4203;48.144;14.118;2023-03-04T07:51:32;3.50;99.90
8332;DHT22;4203;48.144;14.118;2023-03-04T07:54:00;3.50;99.90
8332;DHT22;4203;48.144;14.118;2023-03-04T07:56:31;3.70;99.90
8332;DHT22;4203;48.144;14.118;2023-03-04T07:58:59;3.90;99.90
8332;DHT22;4203;48.144;14.118;2023-03-04T08:01:28;4.10;99.90
8332;DHT22;4203;48.144;14.118;2023-03-04T08:03:56;4.30;99.90
8332;DHT22;4203;48.144;14.118;2023-03-04T08:06:24;4.40;99.90
8332;DHT22;4203;48.144;14.118;2023-03-04T08:08:55;4.60;99.90
8332;DHT22;4203;48.144;14.118;2023-03-04T08:11:23;4.70;99.90
8332;DHT22;4203;48.144;14.118;2023-03-04T08:13:52;4.80;99.90
8332;DHT22;4203;48.144;14.118;2023-03-04T08:16:21;5.00;99.90
8332;DHT22;4203;48.144;14.118;2023-03-04T08:18:51;5.00;99.90
8332;DHT22;4203;48.144;14.118;2023-03-04T08:21:20;5.30;99.90
8332;DHT22;4203;48.144;14.118;2023-03-04T08:23:48;5.60;99.90
8332;DHT22;4203;48.144;14.118;2023-03-04T08:26:17;5.90;99.90
8332;DHT22;4203;48.144;14.118;2023-03-04T08:28:45;6.30;99.90
8332;DHT22;4203;48.144;14.118;2023-03-04T08:31:15;6.60;99.90
8332;DHT22;4203;48.144;14.118;2023-03-04T08:33:43;6.90;99.90
8332;DHT22;4203;48.144;14.118;2023-03-04T08:36:11;7.00;99.90
8332;DHT22;4203;48.144;14.118;2023-03-04T08:38:38;6.90;99.90
8332;DHT22;4203;48.144;14.118;2023-03-04T08:41:06;7.10;99.90
8332;DHT22;4203;48.144;14.118;2023-03-04T08:43:33;7.00;99.90
8332;DHT22;4203;48.144;14.118;2023-03-04T08:46:01;7.00;99.90
8332;DHT22;4203;48.144;14.118;2023-03-04T08:48:30;7.10;99.90
8332;DHT22;4203;48.144;14.118;2023-03-04T08:50:57;7.20;99.90
8332;DHT22;4203;48.144;14.118;2023-03-04T08:53:25;7.30;99.90
8332;DHT22;4203;48.144;14.118;2023-03-04T08:55:52;7.70;99.90
8332;DHT22;4203;48.144;14.118;2023-03-04T08:58:19;7.90;99.90
8332;DHT22;4203;48.144;14.118;2023-03-04T09:00:48;7.80;99.90
8332;DHT22;4203;48.144;14.118;2023-03-04T09:03:16;7.70;99.90
8332;DHT22;4203;48.144;14.118;2023-03-04T09:05:47;7.70;99.90
8332;DHT22;4203;48.144;14.118;2023-03-04T09:08:15;7.60;99.90
8332;DHT22;4203;48.144;14.118;2023-03-04T09:10:44;7.90;99.90
8332;DHT22;4203;48.144;14.118;2023-03-04T09:13:11;8.10;99.90
8332;DHT22;4203;48.144;14.118;2023-03-04T09:15:43;8.30;99.90
8332;DHT22;4203;48.144;14.118;2023-03-04T09:18:10;8.30;99.90
8332;DHT22;4203;48.144;14.118;2023-03-04T09:20:38;8.00;99.90
8332;DHT22;4203;48.144;14.118;2023-03-04T09:23:07;7.80;99.90
8332;DHT22;4203;48.144;14.118;2023-03-04T09:25:35;8.20;99.90
8332;DHT22;4203;48.144;14.118;2023-03-04T09:28:03;8.20;99.90
8332;DHT22;4203;48.144;14.118;2023-03-04T09:30:30;8.30;99.90
8332;DHT22;4203;48.144;14.118;2023-03-04T09:32:58;8.70;99.90
8332;DHT22;4203;48.144;14.118;2023-03-04T09:35:26;9.00;99.90
8332;DHT22;4203;48.144;14.118;2023-03-04T09:37:56;9.50;99.90
8332;DHT22;4203;48.144;14.118;2023-03-04T09:40:27;9.20;99.90
8332;DHT22;4203;48.144;14.118;2023-03-04T09:42:58;9.90;99.90
8332;DHT22;4203;48.144;14.118;2023-03-04T09:45:34;10.20;99.90
8332;DHT22;4203;48.144;14.118;2023-03-04T09:48:05;10.60;99.90
8332;DHT22;4203;48.144;14.118;2023-03-04T09:50:33;10.80;99.90
8332;DHT22;4203;48.144;14.118;2023-03-04T09:53:08;11.10;99.90
8332;DHT22;4203;48.144;14.118;2023-03-04T09:55:42;11.40;99.90
8332;DHT22;4203;48.144;14.118;2023-03-04T09:58:20;11.60;99.90
8332;DHT22;4203;48.144;14.118;2023-03-04T10:00:55;12.00;99.90
8332;DHT22;4203;48.144;14.118;2023-03-04T10:03:26;12.40;99.90
8332;DHT22;4203;48.144;14.118;2023-03-04T10:06:02;12.40;99.90
8332;DHT22;4203;48.144;14.118;2023-03-04T10:08:39;12.50;99.90
8332;DHT22;4203;48.144;14.118;2023-03-04T10:11:13;11.70;99.90
8332;DHT22;4203;48.144;14.118;2023-03-04T10:13:50;11.70;99.90
8332;DHT22;4203;48.144;14.118;2023-03-04T10:16:22;11.70;99.90
8332;DHT22;4203;48.144;14.118;2023-03-04T10:18:55;11.40;99.90
8332;DHT22;4203;48.144;14.118;2023-03-04T10:21:28;11.90;99.90
8332;DHT22;4203;48.144;14.118;2023-03-04T10:23:57;12.10;99.90
8332;DHT22;4203;48.144;14.118;2023-03-04T10:26:29;12.20;99.90
8332;DHT22;4203;48.144;14.118;2023-03-04T10:28:58;12.20;99.90
8332;DHT22;4203;48.144;14.118;2023-03-04T10:31:31;12.90;99.90
8332;DHT22;4203;48.144;14.118;2023-03-04T10:33:59;13.00;99.90
8332;DHT22;4203;48.144;14.118;2023-03-04T10:36:52;13.70;99.90
8332;DHT22;4203;48.144;14.118;2023-03-04T10:39:25;14.00;98.20
8332;DHT22;4203;48.144;14.118;2023-03-04T10:41:57;14.40;99.90
8332;DHT22;4203;48.144;14.118;2023-03-04T10:44:25;14.50;99.30
8332;DHT22;4203;48.144;14.118;2023-03-04T10:46:54;13.20;96.80
8332;DHT22;4203;48.144;14.118;2023-03-04T10:49:23;12.40;96.90
8332;DHT22;4203;48.144;14.118;2023-03-04T10:51:53;12.60;96.80
8332;DHT22;4203;48.144;14.118;2023-03-04T10:54:26;11.90;97.30
8332;DHT22;4203;48.144;14.118;2023-03-04T10:56:58;11.70;99.00
8332;DHT22;4203;48.144;14.118;2023-03-04T10:59:38;11.70;97.80
8332;DHT22;4203;48.144;14.118;2023-03-04T11:02:19;11.70;99.60
8332;DHT22;4203;48.144;14.118;2023-03-04T11:04:52;12.10;99.90
8332;DHT22;4203;48.144;14.118;2023-03-04T11:07:20;12.40;99.90
8332;DHT22;4203;48.144;14.118;2023-03-04T11:09:48;13.10;98.60
8332;DHT22;4203;48.144;14.118;2023-03-04T11:12:19;12.90;97.10
8332;DHT22;4203;48.144;14.118;2023-03-04T11:14:48;13.00;97.00
8332;DHT22;4203;48.144;14.118;2023-03-04T11:17:19;13.70;99.90
8332;DHT22;4203;48.144;14.118;2023-03-04T11:19:53;14.10;96.90
8332;DHT22;4203;48.144;14.118;2023-03-04T11:22:23;13.80;95.10
8332;DHT22;4203;48.144;14.118;2023-03-04T11:25:05;13.30;98.40
8332;DHT22;4203;48.144;14.118;2023-03-04T11:27:41;13.40;95.00
8332;DHT22;4203;48.144;14.118;2023-03-04T11:30:26;13.30;95.70
8332;DHT22;4203;48.144;14.118;2023-03-04T11:32:59;13.20;98.10
8332;DHT22;4203;48.144;14.118;2023-03-04T11:35:33;13.00;95.50
8332;DHT22;4203;48.144;14.118;2023-03-04T11:38:05;12.20;97.60
8332;DHT22;4203;48.144;14.118;2023-03-04T11:40:40;12.40;97.90
8332;DHT22;4203;48.144;14.118;2023-03-04T11:43:15;12.20;97.20
8332;DHT22;4203;48.144;14.118;2023-03-04T11:46:17;12.70;96.10
8332;DHT22;4203;48.144;14.118;2023-03-04T11:48:52;12.70;96.20
8332;DHT22;4203;48.144;14.118;2023-03-04T11:51:30;13.70;99.00
8332;DHT22;4203;48.144;14.118;2023-03-04T11:54:15;13.70;97.90
8332;DHT22;4203;48.144;14.118;2023-03-04T11:56:46;13.40;95.00
8332;DHT22;4203;48.144;14.118;2023-03-04T11:59:40;12.90;96.40
8332;DHT22;4203;48.144;14.118;2023-03-04T12:02:16;12.00;95.20
8332;DHT22;4203;48.144;14.118;2023-03-04T12:05:16;12.40;95.60
8332;DHT22;4203;48.144;14.118;2023-03-04T12:08:16;12.60;97.20
8332;DHT22;4203;48.144;14.118;2023-03-04T12:10:51;12.90;95.50
8332;DHT22;4203;48.144;14.118;2023-03-04T12:13:35;13.60;96.40
8332;DHT22;4203;48.144;14.118;2023-03-04T12:16:23;13.90;96.60
8332;DHT22;4203;48.144;14.118;2023-03-04T12:19:11;14.30;96.70
8332;DHT22;4203;48.144;14.118;2023-03-04T12:22:00;14.50;96.00
8332;DHT22;4203;48.144;14.118;2023-03-04T12:24:52;14.60;96.50
8332;DHT22;4203;48.144;14.118;2023-03-04T12:27:27;13.30;94.00
8332;DHT22;4203;48.144;14.118;2023-03-04T12:29:59;13.20;96.90
8332;DHT22;4203;48.144;14.118;2023-03-04T12:32:38;13.00;95.60
8332;DHT22;4203;48.144;14.118;2023-03-04T12:35:23;13.50;96.10
8332;DHT22;4203;48.144;14.118;2023-03-04T12:38:22;13.40;97.00
8332;DHT22;4203;48.144;14.118;2023-03-04T12:40:55;14.10;95.90
8332;DHT22;4203;48.144;14.118;2023-03-04T12:43:37;13.90;97.20
8332;DHT22;4203;48.144;14.118;2023-03-04T12:46:15;13.30;95.20
8332;DHT22;4203;48.144;14.118;2023-03-04T12:48:52;13.30;97.10
8332;DHT22;4203;48.144;14.118;2023-03-04T12:51:29;12.90;96.10
8332;DHT22;4203;48.144;14.118;2023-03-04T12:54:10;14.00;94.70
8332;DHT22;4203;48.144;14.118;2023-03-04T12:56:42;14.20;96.40
8332;DHT22;4203;48.144;14.118;2023-03-04T12:59:15;15.50;95.60
8332;DHT22;4203;48.144;14.118;2023-03-04T13:01:49;16.10;95.50
8332;DHT22;4203;48.144;14.118;2023-03-04T13:04:27;16.50;94.70
8332;DHT22;4203;48.144;14.118;2023-03-04T13:07:07;16.40;93.30
8332;DHT22;4203;48.144;14.118;2023-03-04T13:09:44;16.50;94.20
8332;DHT22;4203;48.144;14.118;2023-03-04T13:12:15;16.50;90.80
8332;DHT22;4203;48.144;14.118;2023-03-04T13:17:45;16.50;93.30
8332;DHT22;4203;48.144;14.118;2023-03-04T13:20:24;16.50;90.20
8332;DHT22;4203;48.144;14.118;2023-03-04T13:22:58;16.00;91.50
8332;DHT22;4203;48.144;14.118;2023-03-04T13:25:32;15.70;91.10
8332;DHT22;4203;48.144;14.118;2023-03-04T13:28:21;16.00;90.70
8332;DHT22;4203;48.144;14.118;2023-03-04T13:33:57;15.00;90.20
8332;DHT22;4203;48.144;14.118;2023-03-04T13:36:59;14.80;92.30
8332;DHT22;4203;48.144;14.118;2023-03-04T13:39:36;15.40;92.80
8332;DHT22;4203;48.144;14.118;2023-03-04T13:42:38;15.60;91.30
8332;DHT22;4203;48.144;14.118;2023-03-04T13:45:30;14.90;92.30
8332;DHT22;4203;48.144;14.118;2023-03-04T13:48:00;15.70;92.20
8332;DHT22;4203;48.144;14.118;2023-03-04T13:50:40;15.60;88.40
8332;DHT22;4203;48.144;14.118;2023-03-04T13:56:11;15.70;84.90
8332;DHT22;4203;48.144;14.118;2023-03-04T13:58:41;15.00;88.00
8332;DHT22;4203;48.144;14.118;2023-03-04T14:01:23;15.70;86.00
8332;DHT22;4203;48.144;14.118;2023-03-04T14:03:51;15.70;84.50
8332;DHT22;4203;48.144;14.118;2023-03-04T14:06:19;15.90;85.00
8332;DHT22;4203;48.144;14.118;2023-03-04T14:08:48;16.40;89.00
8332;DHT22;4203;48.144;14.118;2023-03-04T14:11:23;17.00;90.50
8332;DHT22;4203;48.144;14.118;2023-03-04T14:13:52;17.90;90.60
8332;DHT22;4203;48.144;14.118;2023-03-04T14:16:21;18.30;89.00
8332;DHT22;4203;48.144;14.118;2023-03-04T14:19:00;18.60;88.70
8332;DHT22;4203;48.144;14.118;2023-03-04T14:21:29;18.80;85.40
8332;DHT22;4203;48.144;14.118;2023-03-04T14:24:05;18.80;86.80
8332;DHT22;4203;48.144;14.118;2023-03-04T14:26:33;18.10;87.90
8332;DHT22;4203;48.144;14.118;2023-03-04T14:29:17;17.40;85.50
8332;DHT22;4203;48.144;14.118;2023-03-04T14:31:45;16.50;90.20
8332;DHT22;4203;48.144;14.118;2023-03-04T14:34:18;15.20;91.20
8332;DHT22;4203;48.144;14.118;2023-03-04T14:36:48;13.90;92.30
8332;DHT22;4203;48.144;14.118;2023-03-04T14:39:17;13.20;92.00
8332;DHT22;4203;48.144;14.118;2023-03-04T14:41:46;12.10;93.90
8332;DHT22;4203;48.144;14.118;2023-03-04T14:44:22;11.60;94.40
8332;DHT22;4203;48.144;14.118;2023-03-04T14:46:56;11.30;94.70
8332;DHT22;4203;48.144;14.118;2023-03-04T14:49:24;10.80;96.70
8332;DHT22;4203;48.144;14.118;2023-03-04T14:51:53;10.60;97.70
8332;DHT22;4203;48.144;14.118;2023-03-04T14:54:27;10.30;97.90
8332;DHT22;4203;48.144;14.118;2023-03-04T14:56:56;10.00;97.30
8332;DHT22;4203;48.144;14.118;2023-03-04T14:59:39;9.60;98.50
8332;DHT22;4203;48.144;14.118;2023-03-04T15:02:19;9.40;99.90
8332;DHT22;4203;48.144;14.118;2023-03-04T15:04:47;9.20;99.90
8332;DHT22;4203;48.144;14.118;2023-03-04T15:07:18;9.10;99.90
8332;DHT22;4203;48.144;14.118;2023-03-04T15:09:51;8.90;99.90
8332;DHT22;4203;48.144;14.118;2023-03-04T15:12:26;8.50;99.90
8332;DHT22;4203;48.144;14.118;2023-03-04T15:14:56;8.20;99.90
8332;DHT22;4203;48.144;14.118;2023-03-04T15:17:31;7.90;99.90
8332;DHT22;4203;48.144;14.118;2023-03-04T15:20:20;7.80;99.90
8332;DHT22;4203;48.144;14.118;2023-03-04T15:23:04;7.60;99.90
8332;DHT22;4203;48.144;14.118;2023-03-04T15:25:33;7.50;99.90
8332;DHT22;4203;48.144;14.118;2023-03-04T15:28:02;7.20;99.90
8332;DHT22;4203;48.144;14.118;2023-03-04T15:30:32;7.00;99.90
8332;DHT22;4203;48.144;14.118;2023-03-04T15:33:00;6.90;99.90
8332;DHT22;4203;48.144;14.118;2023-03-04T15:35:29;6.80;99.90
8332;DHT22;4203;48.144;14.118;2023-03-04T15:37:58;6.70;99.90
8332;DHT22;4203;48.144;14.118;2023-03-04T15:40:28;6.50;99.90
8332;DHT22;4203;48.144;14.118;2023-03-04T15:42:57;6.30;99.90
8332;DHT22;4203;48.144;14.118;2023-03-04T15:45:27;6.20;99.90
8332;DHT22;4203;48.144;14.118;2023-03-04T15:47:56;6.10;99.90
8332;DHT22;4203;48.144;14.118;2023-03-04T15:50:27;5.90;99.90
8332;DHT22;4203;48.144;14.118;2023-03-04T15:52:57;5.60;99.90
8332;DHT22;4203;48.144;14.118;2023-03-04T15:55:27;5.40;99.90
8332;DHT22;4203;48.144;14.118;2023-03-04T15:57:56;5.30;99.90
8332;DHT22;4203;48.144;14.118;2023-03-04T16:00:25;5.30;99.90
8332;DHT22;4203;48.144;14.118;2023-03-04T16:02:52;5.30;99.90
8332;DHT22;4203;48.144;14.118;2023-03-04T16:05:21;5.20;99.90
8332;DHT22;4203;48.144;14.118;2023-03-04T16:07:50;5.00;99.90
8332;DHT22;4203;48.144;14.118;2023-03-04T16:10:21;4.90;99.90
8332;DHT22;4203;48.144;14.118;2023-03-04T16:12:49;4.70;99.90
8332;DHT22;4203;48.144;14.118;2023-03-04T16:15:19;4.60;99.90
8332;DHT22;4203;48.144;14.118;2023-03-04T16:17:47;4.50;99.90
8332;DHT22;4203;48.144;14.118;2023-03-04T16:20:16;4.30;99.90
8332;DHT22;4203;48.144;14.118;2023-03-04T16:22:48;4.30;99.90
8332;DHT22;4203;48.144;14.118;2023-03-04T16:25:21;4.10;99.90
8332;DHT22;4203;48.144;14.118;2023-03-04T16:27:58;4.00;99.90
8332;DHT22;4203;48.144;14.118;2023-03-04T16:30:33;3.80;99.90